Time;durP1;ratioP1;P1;durP2;ratioP2;P2;SDS_P1;SDS_P2;PMS_P1;PMS_P2;Temp;Humidity;BMP_temperature;BMP_pressure;BME280_temperature;BME280_humidity;BME280_pressure;Samples;Min_cycle;Max_cycle;Signal;HPM_P1;HPM_P2
2023/12/14 00:01:39;;;;;;;26.90;18.07;;;;;;;;;;5022128;28;20330;-63
2023/12/14 00:04:05;;;;;;;28.77;18.42;;;;;;;;;;5012761;28;20643;-64
2023/12/14 00:06:30;;;;;;;32.25;16.80;;;;;;;;;;5020715;28;20021;-63
2023/12/14 00:08:55;;;;;;;36.03;19.35;;;;;;;;;;5013189;28;20030;-64
2023/12/14 00:11:20;;;;;;;40.63;18.80;;;;;;;;;;5019472;28;20036;-63
2023/12/14 00:13:46;;;;;;;43.77;20.97;;;;;;;;;;5013916;28;20084;-63
2023/12/14 00:16:11;;;;;;;43.03;21.53;;;;;;;;;;5017343;28;20414;-63
2023/12/14 00:18:37;;;;;;;42.57;21.47;;;;;;;;;;5027306;28;20307;-63
2023/12/14 00:21:02;;;;;;;39.13;19.98;;;;;;;;;;5022094;28;20272;-63
2023/12/14 00:23:27;;;;;;;45.45;22.98;;;;;;;;;;5014431;28;20033;-64
2023/12/14 00:25:53;;;;;;;55.00;22.10;;;;;;;;;;5020056;28;20503;-64
2023/12/14 00:28:18;;;;;;;44.47;22.90;;;;;;;;;;5016801;28;20789;-64
2023/12/14 00:30:43;;;;;;;51.88;23.48;;;;;;;;;;5012472;28;20049;-64
2023/12/14 00:33:08;;;;;;;50.40;24.33;;;;;;;;;;5016269;28;20079;-64
2023/12/14 00:35:34;;;;;;;48.30;23.07;;;;;;;;;;5011611;28;20379;-64
2023/12/14 00:37:59;;;;;;;42.23;21.80;;;;;;;;;;5017160;28;20635;-63
2023/12/14 00:40:25;;;;;;;45.83;22.33;;;;;;;;;;5012032;28;20767;-64
2023/12/14 00:42:50;;;;;;;40.20;21.40;;;;;;;;;;5015577;28;20640;-63
2023/12/14 00:45:15;;;;;;;44.47;21.90;;;;;;;;;;5011449;28;20100;-64
2023/12/14 00:47:40;;;;;;;51.28;24.42;;;;;;;;;;5016626;28;20439;-64
2023/12/14 00:50:06;;;;;;;43.58;22.10;;;;;;;;;;5015573;28;20032;-63
2023/12/14 00:52:31;;;;;;;44.50;21.85;;;;;;;;;;5016835;28;20076;-64
2023/12/14 00:54:56;;;;;;;40.50;23.17;;;;;;;;;;5018675;28;20025;-64
2023/12/14 00:57:22;;;;;;;50.20;24.48;;;;;;;;;;5018616;28;20299;-64
2023/12/14 00:59:47;;;;;;;42.22;21.33;;;;;;;;;;5015081;28;20026;-64
2023/12/14 01:02:12;;;;;;;46.97;23.00;;;;;;;;;;5025860;28;20071;-64
2023/12/14 01:04:38;;;;;;;47.00;22.13;;;;;;;;;;5019564;28;20018;-64
2023/12/14 01:07:03;;;;;;;45.17;22.02;;;;;;;;;;5015782;28;20029;-64
2023/12/14 01:09:29;;;;;;;48.10;22.50;;;;;;;;;;5015213;28;20018;-65
2023/12/14 01:11:54;;;;;;;48.20;23.05;;;;;;;;;;5015712;28;20085;-64
2023/12/14 01:14:19;;;;;;;50.50;23.63;;;;;;;;;;5015159;28;20044;-64
2023/12/14 01:16:44;;;;;;;44.30;22.87;;;;;;;;;;5020886;28;20040;-64
2023/12/14 01:19:09;;;;;;;46.20;22.53;;;;;;;;;;5019420;28;20273;-64
2023/12/14 01:21:35;;;;;;;46.92;23.35;;;;;;;;;;5028366;28;20264;-64
2023/12/14 01:24:00;;;;;;;48.17;24.15;;;;;;;;;;5032125;28;20541;-64
2023/12/14 01:26:26;;;;;;;42.33;20.63;;;;;;;;;;5030735;28;20029;-64
2023/12/14 01:28:51;;;;;;;46.42;21.92;;;;;;;;;;5023892;28;20026;-64
2023/12/14 01:31:16;;;;;;;44.95;22.52;;;;;;;;;;5024345;28;20465;-64
2023/12/14 01:33:41;;;;;;;47.28;22.35;;;;;;;;;;5019042;28;20061;-64
2023/12/14 01:36:07;;;;;;;38.00;22.13;;;;;;;;;;5017198;28;20030;-63
2023/12/14 01:38:32;;;;;;;40.85;20.42;;;;;;;;;;5015922;28;20269;-64
2023/12/14 01:40:59;;;;;;;43.43;21.03;;;;;;;;;;5019742;28;20021;-64
2023/12/14 01:43:24;;;;;;;43.55;21.98;;;;;;;;;;5022825;28;20296;-64
2023/12/14 01:45:49;;;;;;;38.58;20.90;;;;;;;;;;5014206;28;20030;-64
2023/12/14 01:48:14;;;;;;;43.93;22.17;;;;;;;;;;5016573;28;20034;-64
2023/12/14 01:50:39;;;;;;;37.57;19.87;;;;;;;;;;5014460;28;20257;-63
2023/12/14 01:53:05;;;;;;;39.25;19.80;;;;;;;;;;4996269;28;20280;-64
2023/12/14 01:55:30;;;;;;;38.70;19.87;;;;;;;;;;5016802;28;20375;-63
2023/12/14 01:57:55;;;;;;;37.45;18.30;;;;;;;;;;5015914;28;20300;-63
2023/12/14 02:00:25;;;;;;;34.50;18.35;;;;;;;;;;5011129;28;20476;-63
2023/12/14 02:02:51;;;;;;;32.78;17.50;;;;;;;;;;5014096;28;20542;-63
2023/12/14 02:05:16;;;;;;;33.17;18.10;;;;;;;;;;5014470;28;20025;-63
2023/12/14 02:07:41;;;;;;;33.42;16.75;;;;;;;;;;5014612;28;20025;-64
2023/12/14 02:10:07;;;;;;;31.80;18.50;;;;;;;;;;5014473;28;20112;-63
2023/12/14 02:12:33;;;;;;;28.75;17.08;;;;;;;;;;5014032;28;20312;-63
2023/12/14 02:14:59;;;;;;;29.67;15.38;;;;;;;;;;5015567;28;20030;-62
2023/12/14 02:17:24;;;;;;;28.10;15.68;;;;;;;;;;5019901;28;20040;-63
2023/12/14 02:19:49;;;;;;;24.63;14.77;;;;;;;;;;5033788;28;20104;-62
2023/12/14 02:22:16;;;;;;;24.63;14.30;;;;;;;;;;5017052;28;20355;-62
2023/12/14 02:24:41;;;;;;;26.10;15.20;;;;;;;;;;5013513;28;20331;-62
2023/12/14 02:27:06;;;;;;;24.27;13.63;;;;;;;;;;5014649;28;20034;-66
2023/12/14 02:29:31;;;;;;;25.43;13.67;;;;;;;;;;5023221;28;20272;-64
2023/12/14 02:31:57;;;;;;;22.48;12.38;;;;;;;;;;5017086;28;20331;-64
2023/12/14 02:34:22;;;;;;;22.08;12.68;;;;;;;;;;5013745;28;20108;-64
2023/12/14 02:36:47;;;;;;;21.40;12.68;;;;;;;;;;5020351;28;20388;-64
2023/12/14 02:39:12;;;;;;;19.60;11.70;;;;;;;;;;5029667;28;20058;-64
2023/12/14 02:41:38;;;;;;;20.85;11.90;;;;;;;;;;5013679;28;20312;-64
2023/12/14 02:44:03;;;;;;;18.13;11.65;;;;;;;;;;5024331;28;20065;-64
2023/12/14 02:46:28;;;;;;;24.00;13.18;;;;;;;;;;5013635;28;20030;-64
2023/12/14 02:48:53;;;;;;;18.87;12.40;;;;;;;;;;5013824;28;20377;-64
2023/12/14 02:51:18;;;;;;;21.93;12.63;;;;;;;;;;5013777;28;20265;-64
2023/12/14 02:53:44;;;;;;;22.90;13.37;;;;;;;;;;5013403;28;20755;-64
2023/12/14 02:56:10;;;;;;;22.17;12.48;;;;;;;;;;5013466;28;20377;-64
2023/12/14 02:58:35;;;;;;;23.55;14.30;;;;;;;;;;5013829;28;20040;-64
2023/12/14 03:01:00;;;;;;;25.83;12.75;;;;;;;;;;5013473;28;20029;-64
2023/12/14 03:03:25;;;;;;;22.97;13.97;;;;;;;;;;5012988;28;20030;-64
2023/12/14 03:05:51;;;;;;;24.05;14.73;;;;;;;;;;5013292;28;20284;-64
2023/12/14 03:08:16;;;;;;;23.40;13.83;;;;;;;;;;5013171;28;20485;-64
2023/12/14 03:10:41;;;;;;;20.80;11.98;;;;;;;;;;5016434;28;20769;-64
2023/12/14 03:13:06;;;;;;;27.33;14.93;;;;;;;;;;4995875;28;20018;-64
2023/12/14 03:15:31;;;;;;;29.73;14.17;;;;;;;;;;5012897;28;20288;-64
2023/12/14 03:17:57;;;;;;;26.55;13.77;;;;;;;;;;5013298;28;20294;-64
2023/12/14 03:20:22;;;;;;;26.53;14.10;;;;;;;;;;5013279;28;20100;-64
2023/12/14 03:22:48;;;;;;;26.98;14.73;;;;;;;;;;5012564;28;20365;-64
2023/12/14 03:25:13;;;;;;;29.23;15.07;;;;;;;;;;5012730;28;20026;-64
2023/12/14 03:27:38;;;;;;;23.58;13.93;;;;;;;;;;5013035;28;20026;-64
2023/12/14 03:30:07;;;;;;;29.80;15.23;;;;;;;;;;5017662;28;20731;-63
2023/12/14 03:32:33;;;;;;;22.77;14.18;;;;;;;;;;4995294;28;20285;-63
2023/12/14 03:34:58;;;;;;;30.77;15.13;;;;;;;;;;5012582;28;20029;-63
2023/12/14 03:37:23;;;;;;;27.92;14.30;;;;;;;;;;5026082;28;20291;-64
2023/12/14 03:39:49;;;;;;;27.03;14.50;;;;;;;;;;5012622;28;20040;-63
2023/12/14 03:42:14;;;;;;;26.70;14.23;;;;;;;;;;5013258;28;20614;-63
2023/12/14 03:44:39;;;;;;;26.08;14.95;;;;;;;;;;5013281;28;20774;-63
2023/12/14 03:47:04;;;;;;;29.45;15.27;;;;;;;;;;5014115;28;20036;-63
2023/12/14 03:49:29;;;;;;;35.75;15.98;;;;;;;;;;5014366;28;20057;-64
2023/12/14 03:51:55;;;;;;;25.23;13.93;;;;;;;;;;5012451;28;20026;-63
2023/12/14 03:54:20;;;;;;;26.47;13.57;;;;;;;;;;5012585;28;20288;-63
2023/12/14 03:56:45;;;;;;;28.43;12.00;;;;;;;;;;5012620;28;20350;-63
2023/12/14 03:59:10;;;;;;;24.30;11.93;;;;;;;;;;5012520;28;20277;-63
2023/12/14 04:01:39;;;;;;;26.80;13.87;;;;;;;;;;5012513;28;20332;-63
2023/12/14 04:04:04;;;;;;;24.05;12.98;;;;;;;;;;5013293;28;20311;-63
2023/12/14 04:06:29;;;;;;;22.40;11.82;;;;;;;;;;5009033;28;20049;-63
2023/12/14 04:08:55;;;;;;;22.43;13.17;;;;;;;;;;5012718;28;20036;-64
2023/12/14 04:11:20;;;;;;;23.65;11.75;;;;;;;;;;5012782;28;20296;-63
2023/12/14 04:13:45;;;;;;;23.38;12.55;;;;;;;;;;5012247;28;20380;-63
2023/12/14 04:16:11;;;;;;;26.30;13.45;;;;;;;;;;5012524;28;20092;-63
2023/12/14 04:18:37;;;;;;;27.17;12.97;;;;;;;;;;5012129;28;20022;-63
2023/12/14 04:21:02;;;;;;;24.42;13.15;;;;;;;;;;5011638;28;20272;-63
2023/12/14 04:23:28;;;;;;;27.80;11.98;;;;;;;;;;5011731;28;21131;-64
2023/12/14 04:25:53;;;;;;;24.35;12.15;;;;;;;;;;5012335;28;20037;-63
2023/12/14 04:28:18;;;;;;;30.65;13.43;;;;;;;;;;5011874;28;20033;-63
2023/12/14 04:30:43;;;;;;;23.23;12.17;;;;;;;;;;5013735;28;20088;-63
2023/12/14 04:33:09;;;;;;;26.03;13.00;;;;;;;;;;5014341;28;20330;-63
2023/12/14 04:35:36;;;;;;;20.73;12.48;;;;;;;;;;5012840;28;20291;-64
2023/12/14 04:38:02;;;;;;;21.83;11.57;;;;;;;;;;5024372;28;20037;-63
2023/12/14 04:40:27;;;;;;;22.05;11.52;;;;;;;;;;5011980;28;20037;-63
2023/12/14 04:42:52;;;;;;;20.83;12.43;;;;;;;;;;5029283;28;20041;-63
2023/12/14 04:45:19;;;;;;;27.33;13.17;;;;;;;;;;5019119;28;20316;-63
2023/12/14 04:47:44;;;;;;;22.52;12.13;;;;;;;;;;5011899;28;20272;-63
2023/12/14 04:50:09;;;;;;;22.85;12.68;;;;;;;;;;5012279;28;20441;-63
2023/12/14 04:52:34;;;;;;;23.05;12.65;;;;;;;;;;5012564;28;20025;-63
2023/12/14 04:55:00;;;;;;;22.40;11.35;;;;;;;;;;5012008;28;20041;-63
2023/12/14 04:57:25;;;;;;;23.73;12.57;;;;;;;;;;5014798;28;20281;-63
2023/12/14 04:59:50;;;;;;;26.70;11.57;;;;;;;;;;5025788;28;20479;-63
2023/12/14 05:02:16;;;;;;;24.40;12.07;;;;;;;;;;5029464;28;20754;-64
2023/12/14 05:04:41;;;;;;;20.45;11.70;;;;;;;;;;5020355;28;20369;-64
2023/12/14 05:07:06;;;;;;;21.23;11.88;;;;;;;;;;5014478;28;20022;-63
2023/12/14 05:09:31;;;;;;;22.50;12.13;;;;;;;;;;5020433;28;20025;-63
2023/12/14 05:11:56;;;;;;;23.20;12.83;;;;;;;;;;5013725;28;20269;-63
2023/12/14 05:14:22;;;;;;;19.25;10.95;;;;;;;;;;5011866;28;20272;-63
2023/12/14 05:16:48;;;;;;;20.23;11.02;;;;;;;;;;5004322;28;20940;-64
2023/12/14 05:19:13;;;;;;;20.40;11.25;;;;;;;;;;4999736;28;20014;-63
2023/12/14 05:21:38;;;;;;;19.55;10.40;;;;;;;;;;5010933;28;20054;-64
2023/12/14 05:24:04;;;;;;;24.50;10.52;;;;;;;;;;5011631;28;20272;-64
2023/12/14 05:26:29;;;;;;;20.67;11.02;;;;;;;;;;5013159;28;20365;-64
2023/12/14 05:28:54;;;;;;;19.33;10.48;;;;;;;;;;5011109;28;20057;-64
2023/12/14 05:31:20;;;;;;;21.17;11.05;;;;;;;;;;5013094;28;20049;-64
2023/12/14 05:33:45;;;;;;;17.80;10.97;;;;;;;;;;5013818;28;20372;-63
2023/12/14 05:36:10;;;;;;;16.77;10.50;;;;;;;;;;5017600;28;20769;-63
2023/12/14 05:38:37;;;;;;;22.02;11.35;;;;;;;;;;5023448;28;20817;-63
2023/12/14 05:41:03;;;;;;;18.27;11.13;;;;;;;;;;5027542;28;20022;-64
2023/12/14 05:43:28;;;;;;;19.40;10.80;;;;;;;;;;5015619;28;20502;-64
2023/12/14 05:45:53;;;;;;;19.77;11.25;;;;;;;;;;5014216;28;20467;-63
2023/12/14 05:48:18;;;;;;;20.10;11.30;;;;;;;;;;5015951;28;20357;-63
2023/12/14 05:50:43;;;;;;;23.87;11.80;;;;;;;;;;5014933;28;20057;-63
2023/12/14 05:53:09;;;;;;;20.73;12.00;;;;;;;;;;5019194;28;20658;-64
2023/12/14 05:55:34;;;;;;;20.00;11.32;;;;;;;;;;5033592;28;20959;-64
2023/12/14 05:58:00;;;;;;;21.15;12.38;;;;;;;;;;5024834;28;20113;-63
2023/12/14 06:00:25;;;;;;;23.58;12.32;;;;;;;;;;5014696;28;20121;-63
2023/12/14 06:02:50;;;;;;;22.73;12.60;;;;;;;;;;5014430;28;20057;-63
2023/12/14 06:05:15;;;;;;;23.75;13.80;;;;;;;;;;5014674;28;20308;-63
2023/12/14 06:07:41;;;;;;;19.52;11.77;;;;;;;;;;5014027;28;20056;-64
2023/12/14 06:10:06;;;;;;;25.92;12.75;;;;;;;;;;5028112;28;20068;-64
2023/12/14 06:12:31;;;;;;;22.90;12.25;;;;;;;;;;5014521;28;20476;-64
2023/12/14 06:14:57;;;;;;;22.53;11.23;;;;;;;;;;5014226;28;20061;-64
2023/12/14 06:17:22;;;;;;;19.17;11.48;;;;;;;;;;5025229;28;20711;-64
2023/12/14 06:19:47;;;;;;;26.05;12.60;;;;;;;;;;5015578;28;20032;-64
2023/12/14 06:22:12;;;;;;;23.10;12.05;;;;;;;;;;5013550;28;20384;-63
2023/12/14 06:24:38;;;;;;;25.43;12.20;;;;;;;;;;5015237;28;20030;-63
2023/12/14 06:27:03;;;;;;;29.00;12.73;;;;;;;;;;5015953;28;20288;-63
2023/12/14 06:29:28;;;;;;;24.35;13.20;;;;;;;;;;4996626;28;20280;-63
2023/12/14 06:31:54;;;;;;;19.95;11.90;;;;;;;;;;5015030;28;20073;-63
2023/12/14 06:34:19;;;;;;;22.05;13.93;;;;;;;;;;5013532;28;20497;-63
2023/12/14 06:36:45;;;;;;;24.92;13.63;;;;;;;;;;5021224;28;20087;-63
2023/12/14 06:39:10;;;;;;;23.35;12.13;;;;;;;;;;5018123;28;20026;-63
2023/12/14 06:41:36;;;;;;;26.75;12.48;;;;;;;;;;5017954;28;20033;-63
2023/12/14 06:44:01;;;;;;;23.30;12.85;;;;;;;;;;5013395;28;20132;-62
2023/12/14 06:46:26;;;;;;;22.17;13.70;;;;;;;;;;5013333;28;20014;-63
2023/12/14 06:48:51;;;;;;;24.80;13.48;;;;;;;;;;5017474;28;20253;-63
2023/12/14 06:51:17;;;;;;;20.17;12.00;;;;;;;;;;5013686;28;20364;-63
2023/12/14 06:53:43;;;;;;;21.20;12.63;;;;;;;;;;5012958;28;20616;-64
2023/12/14 06:56:12;;;;;;;21.92;13.30;;;;;;;;;;5013454;28;20539;-63
2023/12/14 06:58:38;;;;;;;26.60;12.98;;;;;;;;;;5013026;28;20036;-63
2023/12/14 07:01:03;;;;;;;22.73;13.32;;;;;;;;;;5013785;28;20033;-63
2023/12/14 07:03:28;;;;;;;21.55;12.65;;;;;;;;;;5013053;28;20148;-63
2023/12/14 07:05:54;;;;;;;23.33;13.17;;;;;;;;;;5021725;28;20025;-63
2023/12/14 07:08:19;;;;;;;23.40;12.60;;;;;;;;;;5017761;28;20281;-63
2023/12/14 07:10:44;;;;;;;23.55;12.90;;;;;;;;;;5013707;28;20281;-64
2023/12/14 07:13:10;;;;;;;20.50;11.85;;;;;;;;;;4982280;28;20045;-63
2023/12/14 07:15:35;;;;;;;22.13;13.07;;;;;;;;;;4984723;28;20885;-63
2023/12/14 07:18:00;;;;;;;24.67;12.85;;;;;;;;;;4973504;28;20076;-64
2023/12/14 07:20:25;;;;;;;19.48;12.10;;;;;;;;;;4973717;28;20898;-64
2023/12/14 07:22:51;;;;;;;23.20;12.60;;;;;;;;;;4972970;28;20033;-64
2023/12/14 07:25:16;;;;;;;22.83;13.33;;;;;;;;;;4974511;28;20269;-63
2023/12/14 07:27:41;;;;;;;26.30;14.15;;;;;;;;;;4975187;28;20331;-64
2023/12/14 07:30:09;;;;;;;21.40;12.73;;;;;;;;;;4977784;28;20148;-64
2023/12/14 07:32:34;;;;;;;22.40;13.00;;;;;;;;;;4991681;28;20025;-64
2023/12/14 07:34:59;;;;;;;21.58;13.23;;;;;;;;;;4986914;28;20079;-64
2023/12/14 07:37:25;;;;;;;20.83;12.82;;;;;;;;;;4974344;28;20902;-64
2023/12/14 07:39:50;;;;;;;19.80;12.57;;;;;;;;;;4974938;28;20137;-64
2023/12/14 07:42:19;;;;;;;24.52;12.95;;;;;;;;;;4984829;28;20091;-63
2023/12/14 07:44:44;;;;;;;22.90;12.32;;;;;;;;;;4974164;28;20026;-64
2023/12/14 07:47:09;;;;;;;20.55;13.35;;;;;;;;;;4982461;28;20092;-64
2023/12/14 07:49:35;;;;;;;21.90;12.13;;;;;;;;;;4972107;28;20037;-64
2023/12/14 07:52:00;;;;;;;23.77;12.20;;;;;;;;;;4973588;28;20272;-64
2023/12/14 07:54:26;;;;;;;19.73;12.45;;;;;;;;;;4975608;28;20033;-64
2023/12/14 07:56:52;;;;;;;25.02;12.35;;;;;;;;;;4980517;28;20026;-64
2023/12/14 07:59:17;;;;;;;22.48;13.57;;;;;;;;;;4974558;28;20032;-64
2023/12/14 08:01:42;;;;;;;23.58;12.50;;;;;;;;;;4976255;28;20026;-64
2023/12/14 08:04:07;;;;;;;19.85;12.60;;;;;;;;;;4974414;28;20920;-64
2023/12/14 08:06:33;;;;;;;18.80;11.75;;;;;;;;;;4960501;28;20068;-64
2023/12/14 08:08:58;;;;;;;22.42;12.68;;;;;;;;;;4973663;28;20029;-64
2023/12/14 08:11:24;;;;;;;21.90;11.90;;;;;;;;;;4976402;28;20036;-64
2023/12/14 08:13:49;;;;;;;23.90;13.52;;;;;;;;;;4976978;28;20026;-64
2023/12/14 08:16:17;;;;;;;26.70;12.60;;;;;;;;;;4975138;28;20108;-64
2023/12/14 08:18:44;;;;;;;21.55;13.43;;;;;;;;;;4978014;28;20959;-64
2023/12/14 08:21:09;;;;;;;20.13;12.60;;;;;;;;;;4987062;28;20075;-64
2023/12/14 08:23:35;;;;;;;23.45;13.63;;;;;;;;;;4980443;28;20843;-64
2023/12/14 08:26:01;;;;;;;19.45;12.15;;;;;;;;;;4977144;28;20904;-64
2023/12/14 08:28:26;;;;;;;21.13;13.20;;;;;;;;;;4978638;28;20029;-64
2023/12/14 08:30:52;;;;;;;21.63;12.68;;;;;;;;;;4975273;28;20045;-64
2023/12/14 08:33:17;;;;;;;21.45;12.90;;;;;;;;;;4982564;28;20945;-64
2023/12/14 08:35:43;;;;;;;20.77;12.10;;;;;;;;;;4979855;28;20021;-64
2023/12/14 08:38:08;;;;;;;23.75;13.63;;;;;;;;;;4973679;28;20038;-64
2023/12/14 08:40:33;;;;;;;24.02;13.45;;;;;;;;;;4979086;28;20075;-64
2023/12/14 08:42:59;;;;;;;22.30;13.50;;;;;;;;;;4973949;28;20034;-64
2023/12/14 08:45:24;;;;;;;23.27;13.73;;;;;;;;;;4972530;28;20141;-64
2023/12/14 08:47:49;;;;;;;20.93;13.27;;;;;;;;;;4975438;28;20132;-64
2023/12/14 08:50:14;;;;;;;20.87;12.87;;;;;;;;;;4981084;28;20315;-64
2023/12/14 08:52:40;;;;;;;22.48;13.15;;;;;;;;;;4983033;28;20278;-64
2023/12/14 08:55:05;;;;;;;21.98;12.07;;;;;;;;;;4979480;28;20034;-64
2023/12/14 08:57:30;;;;;;;20.02;11.70;;;;;;;;;;4972122;28;20882;-64
2023/12/14 08:59:56;;;;;;;21.08;13.35;;;;;;;;;;4983778;28;20530;-64
2023/12/14 09:02:21;;;;;;;21.10;13.07;;;;;;;;;;4978640;28;20029;-64
2023/12/14 09:04:46;;;;;;;22.45;13.25;;;;;;;;;;4979239;28;20029;-64
2023/12/14 09:07:12;;;;;;;20.70;11.93;;;;;;;;;;4978397;28;20025;-64
2023/12/14 09:09:37;;;;;;;21.90;12.43;;;;;;;;;;4979370;28;20395;-65
2023/12/14 09:12:02;;;;;;;20.10;13.00;;;;;;;;;;4987203;28;20342;-64
2023/12/14 09:14:28;;;;;;;19.75;12.45;;;;;;;;;;4981146;28;20288;-64
2023/12/14 09:16:53;;;;;;;25.25;14.02;;;;;;;;;;4989215;28;20057;-65
2023/12/14 09:19:19;;;;;;;21.48;12.38;;;;;;;;;;4978533;28;20033;-64
2023/12/14 09:21:44;;;;;;;20.07;11.43;;;;;;;;;;4984728;28;20155;-64
2023/12/14 09:24:09;;;;;;;21.73;11.37;;;;;;;;;;4988516;28;20276;-64
2023/12/14 09:26:34;;;;;;;18.75;12.00;;;;;;;;;;4989175;28;20276;-64
2023/12/14 09:29:00;;;;;;;20.00;12.63;;;;;;;;;;4986805;28;20028;-64
2023/12/14 09:31:25;;;;;;;25.42;13.65;;;;;;;;;;4983819;28;20025;-64
2023/12/14 09:33:50;;;;;;;23.98;12.63;;;;;;;;;;4989176;28;20057;-64
2023/12/14 09:36:16;;;;;;;19.23;12.18;;;;;;;;;;4990822;28;20908;-64
2023/12/14 09:38:41;;;;;;;19.87;11.63;;;;;;;;;;4984473;28;20060;-64
2023/12/14 09:41:07;;;;;;;19.67;12.13;;;;;;;;;;4984189;28;20260;-64
2023/12/14 09:43:32;;;;;;;19.25;12.10;;;;;;;;;;4979143;28;20128;-64
2023/12/14 09:45:58;;;;;;;22.33;13.65;;;;;;;;;;4983935;28;20025;-64
2023/12/14 09:48:24;;;;;;;23.35;13.20;;;;;;;;;;4983207;28;20137;-64
2023/12/14 09:50:50;;;;;;;19.73;12.43;;;;;;;;;;4989093;28;20903;-64
2023/12/14 09:53:15;;;;;;;19.40;12.48;;;;;;;;;;4965043;28;20036;-64
2023/12/14 09:55:41;;;;;;;21.05;12.63;;;;;;;;;;4984533;28;20017;-64
2023/12/14 09:58:09;;;;;;;19.50;11.98;;;;;;;;;;4982286;28;20026;-64
2023/12/14 10:00:35;;;;;;;21.15;12.15;;;;;;;;;;4981931;28;20030;-63
2023/12/14 10:03:20;;;;;;;20.48;12.05;;;;;;;;;;4984591;28;20033;-64
2023/12/14 10:05:46;;;;;;;19.63;11.32;;;;;;;;;;4985980;28;20053;-64
2023/12/14 10:08:11;;;;;;;17.08;10.55;;;;;;;;;;4976897;28;20306;-64
2023/12/14 10:10:37;;;;;;;22.48;11.90;;;;;;;;;;4976842;28;20068;-64
2023/12/14 10:13:02;;;;;;;22.05;12.27;;;;;;;;;;4987980;28;20928;-64
2023/12/14 10:15:27;;;;;;;22.73;13.13;;;;;;;;;;4974932;28;20129;-64
2023/12/14 10:17:54;;;;;;;21.83;13.37;;;;;;;;;;4979320;28;20148;-64
2023/12/14 10:20:23;;;;;;;24.00;12.50;;;;;;;;;;4978340;28;20333;-64
2023/12/14 10:22:49;;;;;;;19.45;11.50;;;;;;;;;;4983274;28;20099;-64
2023/12/14 10:25:15;;;;;;;23.30;12.52;;;;;;;;;;4976543;28;20862;-64
2023/12/14 10:27:40;;;;;;;21.73;12.52;;;;;;;;;;4975786;28;20072;-64
2023/12/14 10:30:07;;;;;;;16.58;10.88;;;;;;;;;;4976030;28;20030;-63
2023/12/14 10:32:32;;;;;;;18.00;11.07;;;;;;;;;;4982442;28;20908;-64
2023/12/14 10:34:58;;;;;;;19.85;11.70;;;;;;;;;;4984178;28;20029;-63
2023/12/14 10:37:25;;;;;;;19.70;11.50;;;;;;;;;;4986808;28;20851;-64
2023/12/14 10:39:52;;;;;;;21.38;11.90;;;;;;;;;;4976375;28;20343;-64
2023/12/14 10:42:18;;;;;;;18.67;11.23;;;;;;;;;;4978099;28;20251;-64
2023/12/14 10:44:43;;;;;;;20.33;10.20;;;;;;;;;;4988625;28;20623;-64
2023/12/14 10:47:08;;;;;;;18.55;11.15;;;;;;;;;;4989570;28;20049;-64
2023/12/14 10:49:34;;;;;;;16.42;10.20;;;;;;;;;;4976667;28;20073;-63
2023/12/14 10:52:02;;;;;;;16.58;10.60;;;;;;;;;;4978690;28;20085;-64
2023/12/14 10:54:28;;;;;;;15.98;9.38;;;;;;;;;;4977006;28;20029;-64
2023/12/14 10:56:57;;;;;;;16.25;9.00;;;;;;;;;;4982982;28;20038;-64
2023/12/14 10:59:23;;;;;;;17.63;9.55;;;;;;;;;;4987754;28;20140;-64
2023/12/14 11:01:53;;;;;;;17.63;10.27;;;;;;;;;;4980246;28;20187;-64
2023/12/14 11:04:19;;;;;;;15.07;8.55;;;;;;;;;;4976513;28;20091;-64
2023/12/14 11:06:47;;;;;;;19.35;8.82;;;;;;;;;;4982715;28;20025;-64
2023/12/14 11:09:15;;;;;;;14.45;8.45;;;;;;;;;;4987761;28;20087;-64
2023/12/14 11:11:43;;;;;;;12.73;7.85;;;;;;;;;;4985535;28;20033;-63
2023/12/14 11:14:10;;;;;;;14.70;8.70;;;;;;;;;;4984410;28;20034;-63
2023/12/14 11:16:36;;;;;;;12.23;7.65;;;;;;;;;;4980135;28;20055;-64
2023/12/14 11:19:20;;;;;;;12.68;8.00;;;;;;;;;;4983842;28;20075;-64
2023/12/14 11:21:46;;;;;;;9.67;5.40;;;;;;;;;;4982537;28;20032;-64
2023/12/14 11:24:12;;;;;;;12.05;7.50;;;;;;;;;;4981933;28;20017;-64
2023/12/14 11:26:37;;;;;;;11.52;7.50;;;;;;;;;;4983171;28;20225;-64
2023/12/14 11:29:04;;;;;;;11.75;7.32;;;;;;;;;;4982068;28;20846;-64
2023/12/14 11:31:29;;;;;;;11.55;6.97;;;;;;;;;;4976840;28;20061;-64
2023/12/14 11:33:56;;;;;;;11.40;6.68;;;;;;;;;;4976723;28;20041;-64
2023/12/14 11:36:21;;;;;;;11.05;6.97;;;;;;;;;;4980861;28;20041;-64
2023/12/14 11:38:47;;;;;;;13.75;6.72;;;;;;;;;;4976475;28;20033;-64
2023/12/14 11:41:13;;;;;;;11.68;6.00;;;;;;;;;;4981155;28;20080;-64
2023/12/14 11:43:39;;;;;;;11.93;6.28;;;;;;;;;;4978104;28;20903;-63
2023/12/14 11:46:05;;;;;;;11.70;5.40;;;;;;;;;;4984494;28;20024;-65
2023/12/14 11:48:31;;;;;;;9.05;5.63;;;;;;;;;;4981880;28;20124;-65
2023/12/14 11:50:58;;;;;;;9.52;5.82;;;;;;;;;;4985732;28;20901;-64
2023/12/14 11:53:25;;;;;;;8.85;5.50;;;;;;;;;;4980796;28;20026;-64
2023/12/14 11:55:51;;;;;;;14.65;5.55;;;;;;;;;;4982528;28;20026;-65
2023/12/14 11:58:17;;;;;;;8.98;5.32;;;;;;;;;;4987615;28;20048;-64
2023/12/14 12:00:46;;;;;;;10.25;5.53;;;;;;;;;;4980178;28;20132;-64
2023/12/14 12:03:24;;;;;;;10.60;5.93;;;;;;;;;;4984044;28;20053;-63
2023/12/14 12:05:50;;;;;;;8.95;5.45;;;;;;;;;;4983101;28;20028;-64
2023/12/14 12:08:18;;;;;;;8.80;5.45;;;;;;;;;;4981997;28;20036;-64
2023/12/14 12:10:44;;;;;;;9.25;5.28;;;;;;;;;;4960538;28;20809;-64
2023/12/14 12:13:13;;;;;;;8.90;5.55;;;;;;;;;;4980268;28;20764;-64
2023/12/14 12:15:39;;;;;;;14.18;6.45;;;;;;;;;;4975086;28;20056;-64
2023/12/14 12:18:22;;;;;;;10.95;5.88;;;;;;;;;;4979968;28;20033;-64
2023/12/14 12:20:47;;;;;;;10.73;5.95;;;;;;;;;;4977620;28;20021;-65
2023/12/14 12:23:13;;;;;;;8.15;5.63;;;;;;;;;;4978830;28;20079;-64
2023/12/14 12:25:38;;;;;;;8.65;5.75;;;;;;;;;;4984245;28;20112;-66
2023/12/14 12:28:04;;;;;;;11.07;6.07;;;;;;;;;;4987827;28;20025;-65
2023/12/14 12:30:29;;;;;;;8.90;5.50;;;;;;;;;;4974695;28;20038;-64
2023/12/14 12:32:58;;;;;;;9.10;5.57;;;;;;;;;;4974881;28;20138;-64
2023/12/14 12:35:24;;;;;;;8.02;5.47;;;;;;;;;;4978813;28;20032;-65
2023/12/14 12:37:53;;;;;;;7.97;5.07;;;;;;;;;;4978673;28;20030;-64
2023/12/14 12:40:22;;;;;;;8.18;5.53;;;;;;;;;;4980878;28;20084;-65
2023/12/14 12:42:48;;;;;;;7.03;4.43;;;;;;;;;;4961545;28;20022;-65
2023/12/14 12:45:14;;;;;;;7.32;5.10;;;;;;;;;;4981928;28;20037;-64
2023/12/14 12:47:39;;;;;;;8.48;5.60;;;;;;;;;;5021676;28;20022;-63
2023/12/14 12:50:05;;;;;;;8.35;4.70;;;;;;;;;;4984387;28;20034;-68
2023/12/14 12:52:30;;;;;;;8.20;5.30;;;;;;;;;;5010684;28;20029;-64
2023/12/14 12:54:56;;;;;;;6.90;4.73;;;;;;;;;;5006443;28;20025;-64
2023/12/14 12:57:21;;;;;;;9.10;4.85;;;;;;;;;;4991666;28;20300;-64
2023/12/14 12:59:46;;;;;;;6.73;4.63;;;;;;;;;;4994443;28;20032;-64
2023/12/14 13:02:11;;;;;;;7.70;4.70;;;;;;;;;;5000925;28;20284;-65
2023/12/14 13:04:37;;;;;;;9.05;4.55;;;;;;;;;;5002506;28;20118;-65
2023/12/14 13:07:04;;;;;;;9.52;4.55;;;;;;;;;;5017598;28;20025;-63
2023/12/14 13:09:29;;;;;;;9.98;5.18;;;;;;;;;;4979596;28;20048;-63
2023/12/14 13:11:54;;;;;;;8.73;4.40;;;;;;;;;;4989423;28;20804;-63
2023/12/14 13:14:19;;;;;;;7.47;4.65;;;;;;;;;;4994403;28;20038;-63
2023/12/14 13:16:45;;;;;;;7.33;4.90;;;;;;;;;;4981672;28;20104;-63
2023/12/14 13:19:10;;;;;;;8.00;5.28;;;;;;;;;;4991412;28;20292;-63
2023/12/14 13:21:35;;;;;;;8.30;5.38;;;;;;;;;;4976971;28;20128;-63
2023/12/14 13:24:01;;;;;;;7.60;5.07;;;;;;;;;;4979756;28;20025;-63
2023/12/14 13:26:26;;;;;;;8.13;5.10;;;;;;;;;;4976204;28;20045;-64
2023/12/14 13:28:52;;;;;;;7.95;5.32;;;;;;;;;;5016534;28;20033;-64
2023/12/14 13:31:17;;;;;;;6.35;5.30;;;;;;;;;;5021351;28;20149;-63
2023/12/14 13:33:42;;;;;;;9.27;5.18;;;;;;;;;;5019404;28;20130;-63
2023/12/14 13:36:08;;;;;;;8.57;5.57;;;;;;;;;;5011410;28;20025;-62
2023/12/14 13:38:35;;;;;;;9.27;4.85;;;;;;;;;;5013349;28;20283;-64
2023/12/14 13:41:02;;;;;;;9.73;5.63;;;;;;;;;;5004458;28;20083;-63
2023/12/14 13:43:28;;;;;;;10.57;5.95;;;;;;;;;;5018331;28;20034;-64
2023/12/14 13:45:57;;;;;;;9.52;5.85;;;;;;;;;;5008926;28;20037;-63
2023/12/14 13:48:22;;;;;;;8.50;5.75;;;;;;;;;;5000580;28;20040;-63
2023/12/14 13:50:48;;;;;;;8.73;5.63;;;;;;;;;;5013993;28;20415;-63
2023/12/14 13:53:13;;;;;;;8.98;5.13;;;;;;;;;;5011265;28;20495;-63
2023/12/14 13:55:38;;;;;;;8.68;5.45;;;;;;;;;;4999665;28;20483;-63
2023/12/14 13:58:04;;;;;;;8.40;5.15;;;;;;;;;;5006234;28;20048;-63
2023/12/14 14:00:29;;;;;;;8.15;5.50;;;;;;;;;;5013214;28;20026;-63
2023/12/14 14:02:55;;;;;;;8.68;5.35;;;;;;;;;;4990304;28;20896;-63
2023/12/14 14:05:21;;;;;;;6.80;5.35;;;;;;;;;;5002684;28;20878;-63
2023/12/14 14:07:47;;;;;;;9.23;5.72;;;;;;;;;;5005449;28;20037;-62
2023/12/14 14:10:12;;;;;;;7.28;4.78;;;;;;;;;;5003398;28;20018;-65
2023/12/14 14:12:37;;;;;;;8.25;5.38;;;;;;;;;;5002705;28;20068;-65